Time;durP1;ratioP1;P1;durP2;ratioP2;P2;SDS_P1;SDS_P2;PMS_P1;PMS_P2;Temp;Humidity;BMP_temperature;BMP_pressure;BME280_temperature;BME280_humidity;BME280_pressure;Samples;Min_cycle;Max_cycle;Signal;HPM_P1;HPM_P2
2022/10/05 00:02:15;;;;;;;5.70;4.90;;;;;;;;;;4958870;28;20370;-73
2022/10/05 00:04:43;;;;;;;6.10;4.73;;;;;;;;;;4977723;28;20222;-73
2022/10/05 00:07:13;;;;;;;7.00;5.20;;;;;;;;;;4945186;28;20217;-74
2022/10/05 00:09:41;;;;;;;5.07;4.67;;;;;;;;;;4961589;28;20237;-73
2022/10/05 00:12:18;;;;;;;7.43;5.00;;;;;;;;;;4972164;28;20218;-73
2022/10/05 00:14:45;;;;;;;6.40;5.20;;;;;;;;;;4956833;28;20258;-73
2022/10/05 00:17:21;;;;;;;5.00;4.50;;;;;;;;;;4976923;28;20229;-73
2022/10/05 00:19:50;;;;;;;6.67;5.60;;;;;;;;;;4965380;28;20591;-73
2022/10/05 00:22:18;;;;;;;6.20;5.60;;;;;;;;;;4953896;28;20270;-74
2022/10/05 00:24:44;;;;;;;7.43;5.57;;;;;;;;;;4949103;28;20325;-75
2022/10/05 00:27:20;;;;;;;5.27;4.73;;;;;;;;;;4962564;28;20288;-74
2022/10/05 00:29:49;;;;;;;5.67;5.17;;;;;;;;;;4988417;28;20230;-73
2022/10/05 00:32:19;;;;;;;8.33;5.50;;;;;;;;;;4982357;28;20704;-74
2022/10/05 00:34:47;;;;;;;5.93;5.40;;;;;;;;;;4941052;28;20254;-74
2022/10/05 00:37:12;;;;;;;5.30;4.67;;;;;;;;;;4968268;28;20218;-73
2022/10/05 00:39:38;;;;;;;7.80;5.53;;;;;;;;;;4943882;28;20309;-73
2022/10/05 00:42:23;;;;;;;6.07;5.50;;;;;;;;;;4951768;28;20275;-73
2022/10/05 00:44:51;;;;;;;5.50;5.03;;;;;;;;;;4976040;28;20250;-73
2022/10/05 00:47:51;;;;;;;5.70;5.20;;;;;;;;;;4989039;28;20300;-73
2022/10/05 00:50:40;;;;;;;6.20;5.57;;;;;;;;;;4965361;28;20234;-74
2022/10/05 00:53:15;;;;;;;5.60;5.10;;;;;;;;;;4971987;28;20266;-73
2022/10/05 00:55:50;;;;;;;6.70;5.10;;;;;;;;;;4927627;28;20218;-74
2022/10/05 00:58:23;;;;;;;7.10;4.93;;;;;;;;;;4977317;28;20265;-73
2022/10/05 01:00:55;;;;;;;6.10;5.53;;;;;;;;;;4957760;28;20689;-73
2022/10/05 01:03:27;;;;;;;5.73;5.07;;;;;;;;;;4956247;28;20223;-74
2022/10/05 01:05:58;;;;;;;4.87;4.40;;;;;;;;;;4973976;28;20585;-73
2022/10/05 01:08:57;;;;;;;5.40;4.87;;;;;;;;;;4974260;28;20224;-73
2022/10/05 01:11:27;;;;;;;6.00;4.70;;;;;;;;;;4976848;28;20252;-73
2022/10/05 01:14:02;;;;;;;4.87;4.33;;;;;;;;;;4945964;28;20306;-73
2022/10/05 01:16:29;;;;;;;4.73;4.27;;;;;;;;;;4982503;28;20237;-74
2022/10/05 01:19:18;;;;;;;4.77;4.37;;;;;;;;;;4992869;28;20222;-73
2022/10/05 01:21:51;;;;;;;4.33;3.93;;;;;;;;;;4973945;28;20765;-73
2022/10/05 01:24:30;;;;;;;4.03;3.73;;;;;;;;;;4976207;28;20281;-73
2022/10/05 01:27:29;;;;;;;5.00;4.10;;;;;;;;;;4990621;28;20233;-74
2022/10/05 01:30:18;;;;;;;5.33;4.10;;;;;;;;;;4953426;28;20289;-73
2022/10/05 01:32:47;;;;;;;5.63;4.17;;;;;;;;;;4989671;28;20720;-74
2022/10/05 01:35:30;;;;;;;4.47;4.07;;;;;;;;;;4952349;28;20301;-73
2022/10/05 01:38:20;;;;;;;4.20;3.80;;;;;;;;;;4968378;28;20639;-74
2022/10/05 01:40:52;;;;;;;4.63;3.90;;;;;;;;;;4966000;28;20218;-73
2022/10/05 01:43:40;;;;;;;5.93;4.30;;;;;;;;;;4993630;28;20296;-73
2022/10/05 01:46:15;;;;;;;4.50;4.03;;;;;;;;;;4968308;28;20230;-74
2022/10/05 01:48:52;;;;;;;6.87;3.87;;;;;;;;;;4955183;28;20246;-73
2022/10/05 01:51:30;;;;;;;4.30;3.63;;;;;;;;;;4968625;28;20229;-74
2022/10/05 01:54:26;;;;;;;7.70;3.90;;;;;;;;;;4978309;28;20245;-73
2022/10/05 01:57:22;;;;;;;8.37;3.70;;;;;;;;;;4993204;28;20226;-73
2022/10/05 02:00:07;;;;;;;5.60;3.87;;;;;;;;;;4962309;28;20298;-73
2022/10/05 02:02:49;;;;;;;5.50;4.00;;;;;;;;;;4970698;28;20286;-74
2022/10/05 02:05:28;;;;;;;4.20;3.80;;;;;;;;;;4938285;28;20662;-74
2022/10/05 02:07:56;;;;;;;4.30;3.90;;;;;;;;;;4939512;28;20237;-73
2022/10/05 02:10:25;;;;;;;4.17;3.87;;;;;;;;;;4979492;28;20227;-74
2022/10/05 02:12:56;;;;;;;4.53;3.97;;;;;;;;;;4993359;28;20226;-75
2022/10/05 02:15:27;;;;;;;4.70;3.93;;;;;;;;;;4970465;28;20839;-74
2022/10/05 02:17:57;;;;;;;6.90;4.63;;;;;;;;;;4953860;28;20318;-73
2022/10/05 02:20:26;;;;;;;4.60;4.10;;;;;;;;;;4986110;28;20778;-74
2022/10/05 02:22:59;;;;;;;4.07;3.80;;;;;;;;;;4960135;28;20222;-74
2022/10/05 02:25:30;;;;;;;4.83;4.33;;;;;;;;;;4979036;28;20234;-74
2022/10/05 02:27:56;;;;;;;5.73;4.17;;;;;;;;;;4962920;28;20215;-74
2022/10/05 02:30:22;;;;;;;4.50;3.73;;;;;;;;;;4977295;28;20248;-73
2022/10/05 02:32:59;;;;;;;4.97;4.47;;;;;;;;;;4969098;28;20591;-74
2022/10/05 02:35:26;;;;;;;4.43;4.13;;;;;;;;;;4973595;28;20704;-73
2022/10/05 02:38:10;;;;;;;4.27;3.87;;;;;;;;;;4975710;28;20223;-75
2022/10/05 02:40:48;;;;;;;4.17;3.80;;;;;;;;;;4974913;28;20234;-74
2022/10/05 02:44:06;;;;;;;7.70;3.97;;;;;;;;;;4996256;28;20276;-74
2022/10/05 02:47:04;;;;;;;5.37;3.80;;;;;;;;;;4954228;28;20233;-74
2022/10/05 02:49:39;;;;;;;4.10;3.70;;;;;;;;;;4976862;28;20822;-74
2022/10/05 02:52:09;;;;;;;5.77;4.10;;;;;;;;;;4996463;28;20237;-74
2022/10/05 02:54:57;;;;;;;4.87;4.20;;;;;;;;;;4977763;28;20310;-75
2022/10/05 02:57:41;;;;;;;4.40;4.00;;;;;;;;;;4990895;28;20222;-74
2022/10/05 03:00:18;;;;;;;4.63;4.13;;;;;;;;;;4978574;28;20724;-74
2022/10/05 03:02:54;;;;;;;4.70;3.90;;;;;;;;;;4952764;28;20249;-74
2022/10/05 03:05:22;;;;;;;7.57;4.47;;;;;;;;;;4976707;28;20234;-74
2022/10/05 03:08:27;;;;;;;5.60;4.23;;;;;;;;;;4975286;28;20601;-73
2022/10/05 03:11:12;;;;;;;5.30;4.17;;;;;;;;;;4963085;28;20325;-73
2022/10/05 03:13:46;;;;;;;5.77;4.33;;;;;;;;;;4961138;28;20614;-74
2022/10/05 03:16:18;;;;;;;5.13;4.20;;;;;;;;;;4977999;28;20728;-74
2022/10/05 03:19:20;;;;;;;6.77;4.23;;;;;;;;;;4975398;28;20247;-74
2022/10/05 03:21:54;;;;;;;5.63;4.07;;;;;;;;;;4992685;28;20226;-74
2022/10/05 03:24:40;;;;;;;5.30;4.10;;;;;;;;;;4973622;28;20214;-75
2022/10/05 03:27:42;;;;;;;4.30;3.90;;;;;;;;;;4953862;28;20705;-73
2022/10/05 03:30:14;;;;;;;7.83;4.17;;;;;;;;;;4976396;28;20240;-73
2022/10/05 03:33:23;;;;;;;4.73;4.03;;;;;;;;;;4967415;28;20214;-73
2022/10/05 03:36:21;;;;;;;6.63;4.60;;;;;;;;;;4992254;28;20290;-73
2022/10/05 03:38:50;;;;;;;4.83;4.43;;;;;;;;;;4973065;28;20264;-73
2022/10/05 03:41:28;;;;;;;6.33;4.67;;;;;;;;;;4992184;28;20660;-73
2022/10/05 03:44:34;;;;;;;4.80;4.40;;;;;;;;;;4959695;28;20268;-73
2022/10/05 03:47:19;;;;;;;4.87;4.43;;;;;;;;;;4955653;28;20253;-73
2022/10/05 03:49:47;;;;;;;4.80;4.30;;;;;;;;;;4993935;28;20238;-73
2022/10/05 03:52:37;;;;;;;5.20;4.70;;;;;;;;;;4975423;28;20288;-73
2022/10/05 03:55:22;;;;;;;6.70;4.57;;;;;;;;;;4959978;28;20305;-73
2022/10/05 03:57:57;;;;;;;6.03;4.23;;;;;;;;;;4988394;28;20721;-73
2022/10/05 04:00:23;;;;;;;5.03;4.53;;;;;;;;;;4966470;28;20226;-74
2022/10/05 04:03:01;;;;;;;5.57;4.87;;;;;;;;;;4967154;28;20230;-73
2022/10/05 04:05:57;;;;;;;7.60;4.67;;;;;;;;;;4977315;28;20937;-73
2022/10/05 04:08:28;;;;;;;5.47;4.77;;;;;;;;;;4972135;28;20230;-74
2022/10/05 04:10:58;;;;;;;4.97;4.50;;;;;;;;;;4984715;28;20777;-72
2022/10/05 04:13:47;;;;;;;5.30;4.47;;;;;;;;;;4951005;28;20219;-74
2022/10/05 04:16:17;;;;;;;5.40;4.90;;;;;;;;;;4967725;28;20233;-74
2022/10/05 04:19:08;;;;;;;6.27;5.27;;;;;;;;;;4962389;28;20234;-73
2022/10/05 04:21:41;;;;;;;6.37;4.63;;;;;;;;;;4990949;28;20229;-75
2022/10/05 04:24:41;;;;;;;10.00;5.27;;;;;;;;;;4976474;28;20228;-72
2022/10/05 04:27:11;;;;;;;5.03;4.53;;;;;;;;;;4981753;28;20285;-73
2022/10/05 04:29:40;;;;;;;6.03;4.60;;;;;;;;;;4990299;28;20229;-74
2022/10/05 04:32:14;;;;;;;4.90;4.40;;;;;;;;;;4970397;28;20222;-74
2022/10/05 04:34:49;;;;;;;8.30;4.97;;;;;;;;;;4994428;28;20300;-71
2022/10/05 04:37:21;;;;;;;6.43;4.70;;;;;;;;;;4981068;28;20362;-72
2022/10/05 04:40:17;;;;;;;6.17;4.40;;;;;;;;;;4950029;28;20215;-72
2022/10/05 04:42:55;;;;;;;4.70;4.30;;;;;;;;;;4973233;28;20584;-72
2022/10/05 04:45:39;;;;;;;7.17;4.73;;;;;;;;;;4978647;28;20242;-71
2022/10/05 04:48:24;;;;;;;6.23;5.27;;;;;;;;;;4960826;28;20233;-74
2022/10/05 04:51:15;;;;;;;5.00;4.50;;;;;;;;;;4975316;28;20245;-74
2022/10/05 04:53:52;;;;;;;6.60;4.80;;;;;;;;;;4987974;28;20229;-74
2022/10/05 04:56:21;;;;;;;4.70;4.30;;;;;;;;;;4994159;28;20226;-73
2022/10/05 04:58:59;;;;;;;6.03;4.60;;;;;;;;;;4966948;28;20222;-72
2022/10/05 05:01:49;;;;;;;4.90;4.33;;;;;;;;;;4958907;28;20225;-71
2022/10/05 05:04:50;;;;;;;7.03;4.53;;;;;;;;;;4988658;28;20227;-74
2022/10/05 05:07:51;;;;;;;4.70;4.30;;;;;;;;;;4968704;28;20230;-74
2022/10/05 05:10:41;;;;;;;6.20;4.37;;;;;;;;;;4949270;28;20233;-72
2022/10/05 05:13:25;;;;;;;6.00;4.50;;;;;;;;;;4976837;28;20310;-74
2022/10/05 05:16:00;;;;;;;4.70;4.20;;;;;;;;;;4949356;28;20594;-74
2022/10/05 05:18:58;;;;;;;5.07;4.20;;;;;;;;;;4961906;28;20219;-73
2022/10/05 05:21:49;;;;;;;5.23;4.77;;;;;;;;;;4941404;28;20701;-71
2022/10/05 05:24:15;;;;;;;12.03;5.20;;;;;;;;;;4977499;28;20214;-72
2022/10/05 05:26:49;;;;;;;4.93;4.37;;;;;;;;;;4967306;28;20230;-72
2022/10/05 05:29:49;;;;;;;5.13;4.60;;;;;;;;;;4993819;28;20656;-71
2022/10/05 05:32:33;;;;;;;6.80;5.07;;;;;;;;;;4966415;28;20719;-73
2022/10/05 05:35:10;;;;;;;5.10;4.60;;;;;;;;;;4974199;28;20230;-72
2022/10/05 05:38:12;;;;;;;7.13;4.93;;;;;;;;;;4982725;28;20289;-72
2022/10/05 05:41:01;;;;;;;7.03;4.77;;;;;;;;;;4989086;28;20733;-73
2022/10/05 05:43:53;;;;;;;5.33;4.83;;;;;;;;;;4955664;28;20230;-71
2022/10/05 05:46:25;;;;;;;5.80;5.20;;;;;;;;;;4943904;28;20803;-72
2022/10/05 05:48:57;;;;;;;7.10;4.97;;;;;;;;;;4959964;28;20234;-72
2022/10/05 05:51:41;;;;;;;5.17;4.67;;;;;;;;;;4987378;28;20231;-73
2022/10/05 05:54:27;;;;;;;5.63;5.00;;;;;;;;;;4970832;28;20637;-74
2022/10/05 05:57:15;;;;;;;4.83;4.43;;;;;;;;;;4994144;28;20226;-71
2022/10/05 06:00:05;;;;;;;5.27;4.77;;;;;;;;;;4939718;28;20224;-70
2022/10/05 06:03:14;;;;;;;5.07;4.63;;;;;;;;;;4968658;28;20221;-74
2022/10/05 06:06:03;;;;;;;6.77;4.90;;;;;;;;;;4990772;28;20233;-73
2022/10/05 06:08:36;;;;;;;5.83;5.20;;;;;;;;;;4980477;28;20226;-71
2022/10/05 06:11:09;;;;;;;7.53;4.50;;;;;;;;;;4960656;28;20234;-73
2022/10/05 06:13:37;;;;;;;8.47;5.10;;;;;;;;;;4984994;28;20229;-72
2022/10/05 06:16:13;;;;;;;4.57;4.17;;;;;;;;;;4981768;28;20268;-72
2022/10/05 06:18:56;;;;;;;4.77;4.37;;;;;;;;;;4956817;28;20617;-73
2022/10/05 06:21:39;;;;;;;5.47;4.97;;;;;;;;;;4965905;28;20591;-73
2022/10/05 06:24:12;;;;;;;5.60;5.10;;;;;;;;;;4977071;28;20257;-73
2022/10/05 06:26:41;;;;;;;6.30;4.70;;;;;;;;;;4986628;28;20245;-73
2022/10/05 06:29:11;;;;;;;4.87;4.37;;;;;;;;;;4977373;28;20304;-72
2022/10/05 06:32:08;;;;;;;8.47;4.87;;;;;;;;;;4945730;28;20230;-72
2022/10/05 06:34:57;;;;;;;5.70;5.10;;;;;;;;;;4983716;28;20250;-72
2022/10/05 06:37:38;;;;;;;7.27;4.60;;;;;;;;;;4985089;28;20233;-73
2022/10/05 06:40:26;;;;;;;5.80;4.93;;;;;;;;;;4984418;28;20221;-73
2022/10/05 06:43:14;;;;;;;5.03;4.50;;;;;;;;;;4967143;28;20304;-72
2022/10/05 06:46:08;;;;;;;4.43;4.13;;;;;;;;;;4975680;28;20235;-74
2022/10/05 06:48:56;;;;;;;6.93;4.30;;;;;;;;;;4977228;28;20233;-73
2022/10/05 06:51:40;;;;;;;4.53;4.10;;;;;;;;;;4969619;28;20236;-72
2022/10/05 06:54:19;;;;;;;7.20;4.23;;;;;;;;;;4964301;28;20243;-72
2022/10/05 06:57:11;;;;;;;5.57;4.17;;;;;;;;;;4971845;28;20215;-72
2022/10/05 07:00:06;;;;;;;4.57;4.17;;;;;;;;;;4963141;28;20231;-72
2022/10/05 07:02:44;;;;;;;5.30;4.80;;;;;;;;;;4995726;28;20230;-73
2022/10/05 07:05:43;;;;;;;5.13;4.20;;;;;;;;;;4972080;28;20226;-73
2022/10/05 07:08:24;;;;;;;5.03;4.53;;;;;;;;;;4985548;28;20218;-72
2022/10/05 07:11:13;;;;;;;4.57;4.13;;;;;;;;;;4978006;28;20239;-72
2022/10/05 07:13:57;;;;;;;6.70;4.40;;;;;;;;;;4951367;28;20685;-75
2022/10/05 07:16:45;;;;;;;5.03;4.53;;;;;;;;;;4976420;28;20240;-73
2022/10/05 07:19:36;;;;;;;5.53;4.30;;;;;;;;;;4949295;28;20231;-74
2022/10/05 07:22:28;;;;;;;5.63;4.47;;;;;;;;;;4988669;28;20222;-73
2022/10/05 07:25:12;;;;;;;4.68;4.20;;;;;;;;;;4958692;28;20763;-72
2022/10/05 07:28:06;;;;;;;7.63;4.33;;;;;;;;;;4946497;28;20760;-72
2022/10/05 07:30:44;;;;;;;4.87;4.33;;;;;;;;;;4952627;28;20233;-73
2022/10/05 07:33:52;;;;;;;5.20;4.70;;;;;;;;;;4969831;28;20261;-72
2022/10/05 07:39:50;;;;;;;6.00;4.80;;;;;;;;;;4962754;28;20234;-73
2022/10/05 07:42:36;;;;;;;6.60;4.50;;;;;;;;;;4969060;28;20249;-72
2022/10/05 07:45:28;;;;;;;7.17;4.70;;;;;;;;;;4967891;28;20234;-72
2022/10/05 07:47:57;;;;;;;4.53;4.17;;;;;;;;;;4944937;28;20858;-72
2022/10/05 07:50:37;;;;;;;9.60;4.33;;;;;;;;;;4977747;28;20884;-71
2022/10/05 07:53:23;;;;;;;5.23;4.20;;;;;;;;;;4960856;28;20226;-72
2022/10/05 07:55:51;;;;;;;4.50;4.10;;;;;;;;;;4982635;28;20758;-73
2022/10/05 07:58:20;;;;;;;4.75;4.30;;;;;;;;;;4944418;28;20739;-73
2022/10/05 08:00:59;;;;;;;4.73;4.23;;;;;;;;;;4963567;28;20222;-72
2022/10/05 08:04:04;;;;;;;5.18;4.50;;;;;;;;;;4978190;28;20321;-73
2022/10/05 08:06:36;;;;;;;6.57;4.35;;;;;;;;;;4914282;29;20235;-73
2022/10/05 08:09:11;;;;;;;5.05;4.60;;;;;;;;;;4952470;28;20237;-74
2022/10/05 08:11:55;;;;;;;5.25;4.60;;;;;;;;;;4963260;28;20229;-73
2022/10/05 08:14:32;;;;;;;6.40;5.33;;;;;;;;;;4959727;28;20217;-73
2022/10/05 08:17:12;;;;;;;5.90;5.35;;;;;;;;;;4961636;28;20308;-73
2022/10/05 08:19:42;;;;;;;5.10;4.63;;;;;;;;;;4969230;28;20957;-72
2022/10/05 08:22:09;;;;;;;7.43;4.78;;;;;;;;;;4954978;28;20233;-72
2022/10/05 08:24:38;;;;;;;5.47;4.90;;;;;;;;;;4953171;28;20377;-72
2022/10/05 08:27:38;;;;;;;6.75;4.90;;;;;;;;;;4976164;28;20254;-73
2022/10/05 08:30:07;;;;;;;6.78;5.05;;;;;;;;;;4955691;28;20277;-72
2022/10/05 08:32:43;;;;;;;6.95;5.22;;;;;;;;;;4964073;28;20257;-72
2022/10/05 08:35:36;;;;;;;6.68;4.88;;;;;;;;;;4985001;28;20371;-74
2022/10/05 08:38:15;;;;;;;5.45;4.95;;;;;;;;;;4991708;28;20231;-73
2022/10/05 08:40:50;;;;;;;5.55;4.18;;;;;;;;;;4953148;28;20680;-73
2022/10/05 08:43:25;;;;;;;5.32;4.72;;;;;;;;;;4967157;28;20250;-71
2022/10/05 08:46:07;;;;;;;5.85;4.43;;;;;;;;;;4961118;28;20334;-73
2022/10/05 08:48:52;;;;;;;8.60;5.40;;;;;;;;;;4973216;28;20248;-72
2022/10/05 08:51:23;;;;;;;5.03;4.63;;;;;;;;;;4973392;28;20851;-72
2022/10/05 08:54:39;;;;;;;6.18;4.40;;;;;;;;;;4969408;28;20292;-73
2022/10/05 08:57:41;;;;;;;5.05;4.55;;;;;;;;;;4892238;29;20239;-72
2022/10/05 09:00:19;;;;;;;5.00;4.38;;;;;;;;;;4905954;29;20224;-72
2022/10/05 09:03:07;;;;;;;5.47;4.80;;;;;;;;;;4952694;28;20704;-71
2022/10/05 09:06:15;;;;;;;5.68;4.70;;;;;;;;;;4987959;28;20302;-73
2022/10/05 09:09:09;;;;;;;5.63;4.17;;;;;;;;;;4961030;28;20252;-71
2022/10/05 09:11:39;;;;;;;4.70;4.30;;;;;;;;;;4956381;28;20269;-72
2022/10/05 09:14:20;;;;;;;9.00;4.70;;;;;;;;;;4931310;28;20226;-72
2022/10/05 09:16:57;;;;;;;5.20;4.70;;;;;;;;;;4964806;28;20740;-71
2022/10/05 09:19:49;;;;;;;5.05;4.55;;;;;;;;;;4961085;28;20238;-72
2022/10/05 09:22:23;;;;;;;5.30;4.60;;;;;;;;;;4974663;28;20306;-73
2022/10/05 09:24:58;;;;;;;4.10;3.72;;;;;;;;;;4967835;28;20802;-73
2022/10/05 09:27:35;;;;;;;4.78;4.32;;;;;;;;;;4961362;28;20221;-72
2022/10/05 09:30:11;;;;;;;5.00;4.45;;;;;;;;;;4961451;28;20238;-72
2022/10/05 09:32:48;;;;;;;4.88;4.47;;;;;;;;;;4966826;28;20688;-72
2022/10/05 09:35:20;;;;;;;5.30;4.40;;;;;;;;;;4977558;28;20227;-72
2022/10/05 09:38:00;;;;;;;4.97;4.50;;;;;;;;;;4970240;28;20281;-72
2022/10/05 09:40:50;;;;;;;4.68;4.28;;;;;;;;;;4974665;28;20226;-71
2022/10/05 09:43:19;;;;;;;4.90;4.50;;;;;;;;;;4971347;28;20238;-73
2022/10/05 09:45:56;;;;;;;4.60;4.00;;;;;;;;;;4964305;28;20223;-72
2022/10/05 09:48:39;;;;;;;4.95;4.07;;;;;;;;;;4965657;28;20246;-74
2022/10/05 09:51:22;;;;;;;4.70;4.00;;;;;;;;;;4990824;28;20327;-71
2022/10/05 09:54:02;;;;;;;5.35;4.18;;;;;;;;;;4974440;28;20226;-72
2022/10/05 09:56:50;;;;;;;5.85;4.45;;;;;;;;;;4974711;28;20696;-73
2022/10/05 09:59:43;;;;;;;5.00;4.22;;;;;;;;;;4956949;28;20282;-73
2022/10/05 10:02:15;;;;;;;4.50;4.10;;;;;;;;;;4960416;28;20742;-73
2022/10/05 10:05:04;;;;;;;6.68;4.20;;;;;;;;;;4959067;28;20385;-71
2022/10/05 10:07:54;;;;;;;4.10;3.70;;;;;;;;;;4938390;28;20317;-71
2022/10/05 10:10:48;;;;;;;4.35;3.95;;;;;;;;;;4976278;28;20293;-72
2022/10/05 10:13:40;;;;;;;4.97;4.25;;;;;;;;;;4990502;28;20218;-72
2022/10/05 10:16:19;;;;;;;4.45;3.83;;;;;;;;;;4951065;28;20241;-72
2022/10/05 10:19:00;;;;;;;5.10;4.10;;;;;;;;;;4985489;28;20320;-72
2022/10/05 10:21:46;;;;;;;4.32;3.92;;;;;;;;;;4961767;28;20752;-72
2022/10/05 10:24:28;;;;;;;3.88;3.58;;;;;;;;;;4983781;28;20280;-72
2022/10/05 10:27:15;;;;;;;5.90;4.13;;;;;;;;;;4975064;28;20230;-72
2022/10/05 10:30:05;;;;;;;4.50;3.80;;;;;;;;;;4976371;28;20743;-73
2022/10/05 10:33:18;;;;;;;3.55;3.25;;;;;;;;;;4959132;28;20343;-71
2022/10/05 10:36:05;;;;;;;3.85;3.38;;;;;;;;;;4940724;28;20583;-73
2022/10/05 10:38:45;;;;;;;3.60;3.30;;;;;;;;;;4975889;28;20260;-71
2022/10/05 10:41:26;;;;;;;3.85;3.30;;;;;;;;;;4986301;28;20230;-72
2022/10/05 10:44:20;;;;;;;4.20;3.30;;;;;;;;;;4980056;28;20301;-73
2022/10/05 10:47:03;;;;;;;3.50;3.10;;;;;;;;;;4964372;28;20234;-73
2022/10/05 10:50:05;;;;;;;3.22;2.92;;;;;;;;;;4973904;28;20234;-72
2022/10/05 10:52:55;;;;;;;2.70;2.50;;;;;;;;;;4965357;28;20230;-72
2022/10/05 10:55:43;;;;;;;3.97;2.90;;;;;;;;;;4961821;28;20227;-72
2022/10/05 10:58:21;;;;;;;3.42;3.10;;;;;;;;;;4964106;28;20655;-72
2022/10/05 11:00:59;;;;;;;3.03;2.80;;;;;;;;;;4983063;28;20226;-72
2022/10/05 11:03:43;;;;;;;3.20;2.90;;;;;;;;;;4978041;28;20233;-73
2022/10/05 11:06:35;;;;;;;3.10;2.90;;;;;;;;;;4968907;28;20747;-72
2022/10/05 11:09:08;;;;;;;4.55;3.13;;;;;;;;;;4969194;28;20222;-73
2022/10/05 11:12:08;;;;;;;3.38;3.08;;;;;;;;;;4994679;28;20740;-72
2022/10/05 11:14:48;;;;;;;2.97;2.65;;;;;;;;;;4995770;28;20321;-73
2022/10/05 11:17:36;;;;;;;3.08;2.78;;;;;;;;;;4991630;28;20285;-73
2022/10/05 11:20:36;;;;;;;3.15;2.70;;;;;;;;;;4981091;28;20689;-72
2022/10/05 11:23:28;;;;;;;3.67;3.22;;;;;;;;;;4959595;28;20241;-75
2022/10/05 11:26:10;;;;;;;4.20;3.90;;;;;;;;;;4959139;28;20606;-73
2022/10/05 11:28:56;;;;;;;3.65;3.30;;;;;;;;;;4992303;28;20232;-74
2022/10/05 11:31:40;;;;;;;3.70;3.33;;;;;;;;;;4962157;28;20235;-73
2022/10/05 11:34:32;;;;;;;3.25;2.95;;;;;;;;;;4964243;28;20321;-76
2022/10/05 11:37:32;;;;;;;3.45;3.20;;;;;;;;;;4981840;28;20266;-73
2022/10/05 11:40:01;;;;;;;3.45;2.80;;;;;;;;;;4977734;28;20305;-73
2022/10/05 11:42:55;;;;;;;5.03;4.60;;;;;;;;;;4967564;28;20234;-73
2022/10/05 11:45:42;;;;;;;3.35;3.05;;;;;;;;;;4968704;28;20231;-73
2022/10/05 11:48:39;;;;;;;3.15;2.95;;;;;;;;;;4967820;28;20238;-72
2022/10/05 11:51:11;;;;;;;3.85;3.05;;;;;;;;;;4976379;28;20265;-73
2022/10/05 11:54:04;;;;;;;2.92;2.60;;;;;;;;;;4978647;28;20570;-74
2022/10/05 11:56:45;;;;;;;3.33;3.03;;;;;;;;;;4972771;28;20777;-74
2022/10/05 11:59:17;;;;;;;3.00;2.80;;;;;;;;;;4965093;28;20206;-73
2022/10/05 12:02:12;;;;;;;2.78;2.58;;;;;;;;;;4977583;28;20219;-73
2022/10/05 12:05:06;;;;;;;2.58;2.38;;;;;;;;;;4963149;28;20325;-75
2022/10/05 12:07:38;;;;;;;3.10;2.90;;;;;;;;;;4960809;28;20846;-74
2022/10/05 12:10:29;;;;;;;2.83;2.25;;;;;;;;;;4974859;28;20254;-73
2022/10/05 12:13:13;;;;;;;2.78;2.58;;;;;;;;;;4963194;28;20230;-73
2022/10/05 12:15:42;;;;;;;2.80;2.60;;;;;;;;;;4992040;28;20233;-75
2022/10/05 12:18:12;;;;;;;6.85;2.78;;;;;;;;;;4978794;28;20245;-74
2022/10/05 12:20:50;;;;;;;2.50;2.30;;;;;;;;;;4974446;28;20227;-74
2022/10/05 12:23:23;;;;;;;2.63;2.42;;;;;;;;;;4972849;28;20610;-74
2022/10/05 12:25:53;;;;;;;2.58;2.38;;;;;;;;;;4977617;28;20697;-75
2022/10/05 12:28:29;;;;;;;2.83;2.60;;;;;;;;;;4989535;28;20230;-75
2022/10/05 12:30:54;;;;;;;2.40;2.20;;;;;;;;;;4935971;28;20719;-74
2022/10/05 12:33:27;;;;;;;2.38;2.10;;;;;;;;;;4982281;28;20222;-74
2022/10/05 12:36:42;;;;;;;2.70;2.42;;;;;;;;;;4973490;28;20233;-74
2022/10/05 12:39:45;;;;;;;3.05;2.22;;;;;;;;;;4954938;28;20226;-74
2022/10/05 12:42:54;;;;;;;3.47;2.63;;;;;;;;;;4969900;28;20217;-74
2022/10/05 12:45:35;;;;;;;2.38;2.17;;;;;;;;;;4941584;28;20289;-73
2022/10/05 12:48:11;;;;;;;2.25;2.10;;;;;;;;;;4972309;28;20250;-74
2022/10/05 12:50:42;;;;;;;2.03;1.83;;;;;;;;;;4976782;28;20238;-74
2022/10/05 12:53:27;;;;;;;2.25;2.05;;;;;;;;;;4960373;28;20313;-75
2022/10/05 12:55:59;;;;;;;1.95;1.80;;;;;;;;;;4974072;28;20234;-73
2022/10/05 12:58:58;;;;;;;2.30;2.10;;;;;;;;;;4975333;28;20226;-75
2022/10/05 13:01:32;;;;;;;2.42;2.15;;;;;;;;;;4976663;28;20229;-72
2022/10/05 13:04:22;;;;;;;3.70;2.05;;;;;;;;;;4943549;28;20234;-72
2022/10/05 13:07:29;;;;;;;2.58;2.38;;;;;;;;;;4958190;28;20728;-75
2022/10/05 13:10:03;;;;;;;1.90;1.80;;;;;;;;;;4973229;28;20238;-75
2022/10/05 13:12:35;;;;;;;2.35;2.10;;;;;;;;;;4963695;28;20283;-74
2022/10/05 13:15:22;;;;;;;3.65;2.00;;;;;;;;;;4961498;28;20666;-73
2022/10/05 13:18:09;;;;;;;2.08;1.90;;;;;;;;;;4994454;28;20233;-73
2022/10/05 13:20:46;;;;;;;3.40;1.77;;;;;;;;;;4979156;28;20242;-74
2022/10/05 13:23:23;;;;;;;5.97;2.45;;;;;;;;;;4975762;28;20316;-74
2022/10/05 13:25:54;;;;;;;2.92;1.85;;;;;;;;;;4950722;28;20219;-74
2022/10/05 13:28:42;;;;;;;1.83;1.73;;;;;;;;;;4966032;28;20221;-73
2022/10/05 13:31:12;;;;;;;1.73;1.60;;;;;;;;;;4981600;28;20932;-73
2022/10/05 13:34:11;;;;;;;2.20;2.00;;;;;;;;;;4949240;28;20253;-73
2022/10/05 13:36:46;;;;;;;2.78;1.92;;;;;;;;;;4960292;28;20348;-72
2022/10/05 13:39:21;;;;;;;2.80;1.90;;;;;;;;;;4958610;28;20240;-70
2022/10/05 13:42:10;;;;;;;2.40;1.80;;;;;;;;;;4982898;28;20709;-73
2022/10/05 13:44:44;;;;;;;2.75;1.60;;;;;;;;;;4964415;28;20233;-74
2022/10/05 13:47:18;;;;;;;4.55;1.77;;;;;;;;;;4990727;28;20725;-72
2022/10/05 13:49:49;;;;;;;3.45;1.60;;;;;;;;;;4979275;28;20237;-72
2022/10/05 13:52:17;;;;;;;2.88;1.70;;;;;;;;;;4994706;28;20372;-72
2022/10/05 13:55:11;;;;;;;2.28;2.00;;;;;;;;;;4956786;28;20257;-72
2022/10/05 13:57:59;;;;;;;2.13;1.92;;;;;;;;;;4963313;28;20234;-71
2022/10/05 14:00:26;;;;;;;2.45;1.80;;;;;;;;;;4957187;28;20226;-74
2022/10/05 14:02:56;;;;;;;2.60;1.90;;;;;;;;;;4960333;28;20230;-73
2022/10/05 14:05:23;;;;;;;2.25;1.95;;;;;;;;;;4976068;28;20222;-71
2022/10/05 14:07:55;;;;;;;2.30;2.10;;;;;;;;;;4962581;28;20244;-73
2022/10/05 14:10:37;;;;;;;2.28;1.90;;;;;;;;;;4957199;28;20226;-72
2022/10/05 14:13:27;;;;;;;2.10;1.90;;;;;;;;;;4946180;28;20707;-73
2022/10/05 14:16:06;;;;;;;1.98;1.80;;;;;;;;;;4985189;28;20234;-72
2022/10/05 14:18:35;;;;;;;3.55;1.60;;;;;;;;;;4963411;28;20269;-71
2022/10/05 14:21:03;;;;;;;2.00;1.77;;;;;;;;;;4979260;28;20233;-73
2022/10/05 14:23:28;;;;;;;4.05;1.80;;;;;;;;;;4952253;28;20222;-74
2022/10/05 14:25:54;;;;;;;1.73;1.63;;;;;;;;;;4960452;28;20246;-72
2022/10/05 14:28:30;;;;;;;2.65;2.00;;;;;;;;;;4988734;28;20222;-74
2022/10/05 14:30:59;;;;;;;2.95;2.33;;;;;;;;;;4991894;28;20249;-72
2022/10/05 14:33:27;;;;;;;1.85;1.70;;;;;;;;;;4961650;28;20361;-72
2022/10/05 14:35:54;;;;;;;2.17;1.90;;;;;;;;;;4960865;28;20245;-72
2022/10/05 14:38:20;;;;;;;2.08;1.80;;;;;;;;;;4968849;28;20305;-73
2022/10/05 14:41:08;;;;;;;3.58;2.25;;;;;;;;;;4969575;28;20313;-71
2022/10/05 14:43:34;;;;;;;3.20;2.00;;;;;;;;;;4967558;28;20261;-72
2022/10/05 14:46:02;;;;;;;1.90;1.80;;;;;;;;;;4978469;28;20290;-72
2022/10/05 14:48:46;;;;;;;2.58;1.85;;;;;;;;;;4954791;28;20241;-72
2022/10/05 14:51:31;;;;;;;3.05;2.13;;;;;;;;;;4979927;28;20296;-72
2022/10/05 14:53:58;;;;;;;1.55;1.45;;;;;;;;;;4960255;28;20301;-73
2022/10/05 14:56:42;;;;;;;2.17;1.98;;;;;;;;;;4951475;28;20227;-74
2022/10/05 14:59:26;;;;;;;2.00;1.77;;;;;;;;;;4968743;28;20261;-73
2022/10/05 15:02:12;;;;;;;2.47;2.15;;;;;;;;;;4978535;28;20222;-72
2022/10/05 15:04:45;;;;;;;1.80;1.70;;;;;;;;;;4969300;28;20669;-72
2022/10/05 15:07:24;;;;;;;2.55;1.70;;;;;;;;;;4978492;28;20238;-71
2022/10/05 15:10:28;;;;;;;1.38;1.38;;;;;;;;;;4950250;28;20218;-72
2022/10/05 15:13:11;;;;;;;3.03;1.70;;;;;;;;;;4979194;28;20249;-72
2022/10/05 15:15:53;;;;;;;1.88;1.45;;;;;;;;;;4964100;28;20232;-73
2022/10/05 15:18:40;;;;;;;1.80;1.70;;;;;;;;;;4967010;28;20226;-73
2022/10/05 15:21:23;;;;;;;2.78;1.40;;;;;;;;;;4974219;28;20234;-72
2022/10/05 15:23:53;;;;;;;1.90;1.33;;;;;;;;;;4962078;28;20226;-73
2022/10/05 15:26:25;;;;;;;2.80;1.67;;;;;;;;;;4976798;28;20218;-73
2022/10/05 15:29:12;;;;;;;1.60;1.50;;;;;;;;;;4979466;28;20226;-73
2022/10/05 15:31:49;;;;;;;1.40;1.30;;;;;;;;;;4944965;28;20620;-74
2022/10/05 15:34:19;;;;;;;4.05;1.38;;;;;;;;;;4984358;28;20225;-73
2022/10/05 15:36:56;;;;;;;4.28;1.58;;;;;;;;;;4949524;28;20751;-72
2022/10/05 15:39:31;;;;;;;1.45;1.33;;;;;;;;;;4968529;28;20225;-72
2022/10/05 15:42:23;;;;;;;3.22;1.65;;;;;;;;;;4979564;28;20229;-75
2022/10/05 15:44:50;;;;;;;2.25;1.30;;;;;;;;;;4959527;28;20226;-73
2022/10/05 15:47:26;;;;;;;1.73;1.40;;;;;;;;;;4974966;28;20226;-72
2022/10/05 15:50:12;;;;;;;2.30;1.40;;;;;;;;;;4981927;28;20283;-73
2022/10/05 15:53:05;;;;;;;2.60;1.55;;;;;;;;;;4976674;28;20274;-72
2022/10/05 15:55:45;;;;;;;2.25;1.90;;;;;;;;;;4978882;28;20665;-73
2022/10/05 15:58:44;;;;;;;2.88;1.55;;;;;;;;;;4966999;28;20232;-73
2022/10/05 16:01:11;;;;;;;1.80;1.70;;;;;;;;;;4961493;28;20222;-72
2022/10/05 16:03:56;;;;;;;1.67;1.58;;;;;;;;;;4950969;28;20222;-73
2022/10/05 16:09:33;;;;;;;2.33;1.42;;;;;;;;;;4961050;28;20223;-72
2022/10/05 16:12:17;;;;;;;1.52;1.40;;;;;;;;;;4975014;28;20234;-72
2022/10/05 16:14:46;;;;;;;6.65;1.65;;;;;;;;;;4958377;28;20285;-73